createdAt,value
2023-02-12T00:01:35.754Z,85.71
2023-02-12T00:04:02.182Z,85.88
2023-02-12T00:06:28.592Z,85.73
2023-02-12T00:08:56.344Z,85.78
2023-02-12T00:11:28.484Z,85.35
2023-02-12T00:13:55.735Z,85.19
2023-02-12T00:16:25.658Z,85.48
2023-02-12T00:18:54.268Z,85.38
2023-02-12T00:21:22.135Z,85.45
2023-02-12T00:23:49.175Z,85.26
2023-02-12T00:26:18.208Z,85.58
2023-02-12T00:28:44.969Z,84.94
2023-02-12T00:31:15.156Z,85.17
2023-02-12T00:33:41.981Z,85.15
2023-02-12T00:36:12.743Z,85.28
2023-02-12T00:38:39.090Z,85.44
2023-02-12T00:41:05.466Z,85.23
2023-02-12T00:43:31.908Z,85.15
2023-02-12T00:45:58.713Z,84.99
2023-02-12T00:48:25.366Z,85.23
2023-02-12T00:50:51.785Z,84.91
2023-02-12T00:53:18.212Z,84.89
2023-02-12T00:55:44.559Z,84.58
2023-02-12T00:58:11.162Z,84.58
2023-02-12T01:00:37.572Z,84.75
2023-02-12T01:03:05.485Z,84.64
2023-02-12T01:05:32.128Z,84.69
2023-02-12T01:07:58.545Z,85.26
2023-02-12T01:10:25.196Z,85.20
2023-02-12T01:12:51.702Z,85.27
2023-02-12T01:15:19.220Z,85.31
2023-02-12T01:17:45.902Z,85.41
2023-02-12T01:20:17.558Z,85.22
2023-02-12T01:22:44.760Z,85.39
2023-02-12T01:25:11.792Z,85.17
2023-02-12T01:27:38.809Z,85.09
2023-02-12T01:30:09.031Z,84.83
2023-02-12T01:32:35.479Z,85.00
2023-02-12T01:35:02.203Z,85.14
2023-02-12T01:37:28.566Z,85.05
2023-02-12T01:39:54.928Z,84.71
2023-02-12T01:42:21.325Z,84.72
2023-02-12T01:45:12.807Z,84.72
2023-02-12T01:47:45.050Z,84.92
2023-02-12T01:50:15.898Z,84.88
2023-02-12T01:52:50.316Z,84.39
2023-02-12T02:30:30.279Z,84.92
2023-02-12T02:33:09.962Z,84.90
2023-02-12T02:35:58.162Z,85.03
2023-02-12T02:38:34.152Z,84.94
2023-02-12T02:41:27.575Z,84.90
2023-02-12T02:43:54.670Z,85.11
2023-02-12T02:46:32.460Z,85.04
2023-02-12T02:49:03.242Z,84.93
2023-02-12T02:51:34.709Z,85.25
2023-02-12T02:54:15.072Z,85.13
2023-02-12T02:56:44.991Z,85.25
2023-02-12T02:59:21.890Z,85.12
2023-02-12T03:01:58.017Z,84.82
2023-02-12T03:04:38.973Z,85.19
2023-02-12T03:07:13.861Z,85.30
2023-02-12T03:09:45.226Z,85.22
2023-02-12T03:12:20.012Z,84.86
2023-02-12T03:14:58.020Z,84.92
2023-02-12T03:17:32.642Z,84.90
2023-02-12T03:20:05.382Z,84.95
2023-02-12T03:22:36.110Z,84.90
2023-02-12T03:25:41.547Z,84.81
2023-02-12T03:28:20.555Z,84.91
2023-02-12T03:31:03.402Z,85.06
2023-02-12T03:33:42.016Z,85.01
2023-02-12T03:36:21.309Z,85.08
2023-02-12T03:38:55.306Z,85.27
2023-02-12T03:41:28.087Z,84.99
2023-02-12T03:44:08.283Z,85.35
2023-02-12T03:46:47.048Z,85.03
2023-02-12T03:49:23.712Z,85.23
2023-02-12T03:51:50.296Z,85.20
2023-02-12T03:54:19.900Z,84.95
2023-02-12T03:56:52.411Z,85.35
2023-02-12T03:59:21.189Z,85.16
2023-02-12T04:01:49.986Z,84.90
2023-02-12T04:04:17.222Z,85.15
2023-02-12T04:06:44.468Z,85.05
2023-02-12T04:09:12.776Z,85.11
2023-02-12T04:11:39.186Z,85.42
2023-02-12T04:14:41.236Z,85.07
2023-02-12T04:17:26.485Z,84.87
2023-02-12T04:20:15.477Z,84.95
2023-02-12T04:22:48.734Z,85.10
2023-02-12T04:25:39.320Z,84.87
2023-02-12T04:28:44.166Z,85.21
2023-02-12T04:31:24.116Z,85.01
2023-02-12T04:34:18.593Z,84.66
2023-02-12T04:36:51.671Z,84.72
2023-02-12T04:39:23.043Z,84.86
2023-02-12T04:41:49.735Z,84.48
2023-02-12T04:44:24.405Z,84.75
2023-02-12T04:46:51.608Z,84.80
2023-02-12T04:49:20.700Z,84.97
2023-02-12T04:51:48.132Z,84.82
2023-02-12T04:54:16.172Z,84.95
2023-02-12T04:56:42.899Z,84.44
2023-02-12T04:59:09.795Z,84.40
2023-02-12T05:01:37.898Z,84.28
2023-02-12T05:04:06.249Z,84.50
2023-02-12T05:06:36.140Z,84.35
2023-02-12T05:09:02.775Z,84.43
2023-02-12T05:11:29.181Z,84.03
2023-02-12T05:13:55.734Z,84.36
2023-02-12T05:16:22.338Z,84.36
2023-02-12T05:18:48.921Z,84.31
2023-02-12T05:21:15.485Z,84.16
2023-02-12T05:23:42.615Z,83.99
2023-02-12T05:26:13.200Z,84.33
2023-02-12T05:28:40.109Z,84.48
2023-02-12T05:31:08.681Z,84.63
2023-02-12T05:33:35.440Z,84.51
2023-02-12T05:36:05.948Z,84.50
2023-02-12T05:38:32.483Z,84.49
2023-02-12T05:41:06.517Z,84.30
2023-02-12T05:43:33.287Z,84.24
2023-02-12T05:46:01.261Z,84.44
2023-02-12T05:48:29.049Z,84.41
2023-02-12T05:51:02.462Z,84.23
2023-02-12T05:53:28.856Z,84.29
2023-02-12T05:55:55.624Z,84.34
2023-02-12T05:58:22.175Z,84.65
2023-02-12T06:00:48.543Z,84.38
2023-02-12T06:03:14.903Z,84.81
2023-02-12T06:05:41.258Z,85.05
2023-02-12T06:08:07.734Z,84.57
2023-02-12T06:10:34.065Z,84.35
2023-02-12T06:13:00.495Z,84.32
2023-02-12T06:15:26.843Z,84.65
2023-02-12T06:17:53.193Z,84.50
2023-02-12T06:20:19.538Z,84.41
2023-02-12T06:22:45.937Z,84.33
2023-02-12T06:25:12.322Z,84.20
2023-02-12T06:27:38.693Z,84.54
2023-02-12T06:30:05.675Z,84.55
2023-02-12T06:32:32.031Z,84.59
2023-02-12T06:34:58.398Z,84.57
2023-02-12T06:37:25.817Z,83.91
2023-02-12T06:39:52.225Z,84.32
2023-02-12T06:42:18.729Z,84.12
2023-02-12T06:44:46.592Z,84.31
2023-02-12T06:47:13.029Z,84.46
2023-02-12T06:49:39.380Z,84.43
2023-02-12T06:52:05.815Z,84.59
2023-02-12T06:54:32.211Z,84.35
2023-02-12T06:56:58.597Z,84.48
2023-02-12T06:59:24.998Z,84.35
2023-02-12T07:01:51.341Z,84.29
2023-02-12T07:04:17.857Z,84.54
2023-02-12T07:06:44.307Z,84.53
2023-02-12T07:09:10.731Z,84.33
2023-02-12T07:11:38.731Z,84.30
2023-02-12T07:14:06.191Z,84.12
2023-02-12T07:16:32.778Z,84.05
2023-02-12T07:19:00.483Z,84.17
2023-02-12T07:21:26.903Z,84.09
2023-02-12T07:23:53.393Z,84.39
2023-02-12T07:26:21.380Z,84.10
2023-02-12T07:28:49.012Z,84.60
2023-02-12T07:31:17.931Z,84.21
2023-02-12T07:33:45.072Z,84.30
2023-02-12T07:36:14.115Z,84.23
2023-02-12T07:38:40.979Z,84.38
2023-02-12T07:41:15.274Z,84.23
2023-02-12T07:43:43.398Z,83.98
2023-02-12T07:46:12.529Z,84.11
2023-02-12T07:48:39.589Z,84.06
2023-02-12T07:51:08.783Z,84.44
2023-02-12T07:53:36.030Z,84.27
2023-02-12T07:56:10.827Z,84.58
2023-02-12T07:58:38.324Z,84.21
2023-02-12T08:01:32.948Z,84.07
2023-02-12T08:04:02.393Z,84.26
2023-02-12T08:06:31.271Z,84.45
2023-02-12T08:09:00.407Z,84.72
2023-02-12T08:11:28.900Z,84.48
2023-02-12T08:13:57.013Z,84.30
2023-02-12T08:16:26.275Z,84.07
2023-02-12T08:18:53.325Z,84.17
2023-02-12T08:21:22.722Z,83.82
2023-02-12T08:23:52.556Z,83.85
2023-02-12T08:26:26.255Z,83.40
2023-02-12T08:28:56.386Z,83.50
2023-02-12T08:31:28.296Z,83.08
2023-02-12T08:33:56.200Z,83.64
2023-02-12T08:36:34.187Z,84.01
2023-02-12T08:39:03.208Z,84.02
2023-02-12T08:41:30.460Z,83.86
2023-02-12T08:43:59.916Z,83.93
2023-02-12T08:46:31.399Z,84.17
2023-02-12T08:49:00.715Z,84.12
2023-02-12T08:51:30.431Z,83.58
2023-02-12T08:53:59.636Z,83.59
2023-02-12T08:56:28.322Z,82.89
2023-02-12T08:58:55.671Z,83.07
2023-02-12T09:01:24.435Z,82.80
2023-02-12T09:03:51.938Z,83.00
2023-02-12T09:06:20.297Z,83.06
2023-02-12T09:08:46.935Z,82.83
2023-02-12T09:11:19.108Z,82.53
2023-02-12T09:13:47.311Z,83.22
2023-02-12T09:16:14.398Z,82.80
2023-02-12T09:19:12.075Z,82.66
2023-02-12T09:21:38.571Z,82.85
2023-02-12T09:24:05.056Z,82.43
2023-02-12T09:26:36.573Z,81.90
2023-02-12T09:29:04.261Z,81.44
2023-02-12T09:31:32.290Z,81.67
2023-02-12T09:34:04.464Z,81.76
2023-02-12T09:36:31.503Z,81.33
2023-02-12T09:38:59.437Z,81.54
2023-02-12T09:42:00.014Z,81.18
2023-02-12T09:44:48.211Z,80.80
2023-02-12T09:47:44.484Z,80.88
2023-02-12T09:50:29.843Z,80.56
2023-02-12T09:52:59.052Z,80.77
2023-02-12T09:55:32.654Z,80.47
2023-02-12T09:58:02.147Z,80.29
2023-02-12T10:00:31.458Z,80.49
2023-02-12T10:03:05.109Z,80.15
2023-02-12T10:05:37.851Z,79.87
2023-02-12T10:08:07.214Z,79.38
2023-02-12T10:10:45.724Z,78.09
2023-02-12T10:13:27.125Z,77.93
2023-02-12T10:16:18.230Z,77.90
2023-02-12T10:19:06.356Z,77.87
2023-02-12T10:22:03.805Z,77.96
2023-02-12T10:24:49.260Z,77.79
2023-02-12T10:27:20.721Z,77.30
2023-02-12T10:29:48.727Z,76.73
2023-02-12T10:32:35.847Z,76.86
2023-02-12T10:35:12.449Z,76.18
2023-02-12T10:37:57.331Z,75.41
2023-02-12T10:40:33.885Z,75.81
2023-02-12T10:43:02.452Z,75.39
2023-02-12T10:45:33.850Z,74.54
2023-02-12T10:48:12.325Z,74.28
2023-02-12T10:50:49.412Z,74.10
2023-02-12T10:53:26.153Z,74.86
2023-02-12T10:56:25.690Z,74.51
2023-02-12T10:58:59.544Z,74.50
2023-02-12T11:01:25.995Z,74.22
2023-02-12T11:03:54.184Z,74.38
2023-02-12T11:06:30.467Z,74.54
2023-02-12T11:09:00.716Z,74.27
2023-02-12T11:11:36.955Z,74.16
2023-02-12T11:14:16.602Z,74.29
2023-02-12T11:17:02.514Z,74.14
2023-02-12T11:19:32.407Z,73.85
2023-02-12T11:22:18.530Z,73.55
2023-02-12T11:24:46.986Z,73.39
2023-02-12T11:27:16.316Z,73.74
2023-02-12T11:29:44.551Z,73.41
2023-02-12T11:32:21.059Z,73.42
2023-02-12T11:35:10.819Z,73.43
2023-02-12T11:37:41.968Z,73.21
2023-02-12T11:40:16.729Z,73.06
2023-02-12T11:42:49.457Z,73.03
2023-02-12T11:45:19.715Z,72.97
2023-02-12T11:47:48.958Z,72.68
2023-02-12T11:50:26.787Z,73.02
2023-02-12T11:52:59.046Z,73.50
2023-02-12T11:55:33.138Z,73.28
2023-02-12T11:58:17.425Z,73.09
2023-02-12T12:00:54.542Z,72.89
2023-02-12T12:03:49.201Z,72.65
2023-02-12T12:06:27.349Z,72.32
2023-02-12T12:09:05.685Z,72.50
2023-02-12T12:11:58.133Z,72.15
2023-02-12T12:14:34.352Z,72.17
2023-02-12T12:17:24.793Z,72.29
2023-02-12T12:19:59.487Z,71.97
2023-02-12T12:22:53.585Z,71.75
2023-02-12T12:25:28.683Z,71.86
2023-02-12T12:28:23.159Z,71.83
2023-02-12T12:31:20.479Z,71.30
2023-02-12T12:33:52.768Z,71.05
2023-02-12T12:36:41.398Z,71.13
2023-02-12T12:39:21.276Z,70.72
2023-02-12T12:42:12.626Z,70.39
2023-02-12T12:45:01.861Z,70.04
2023-02-12T12:47:54.253Z,69.64
2023-02-12T12:50:45.541Z,69.50
2023-02-12T12:53:14.915Z,69.19
2023-02-12T12:56:18.321Z,68.00
2023-02-12T12:59:15.142Z,67.37
2023-02-12T13:01:53.527Z,67.20
2023-02-12T13:04:55.977Z,67.04
2023-02-12T13:07:30.842Z,66.67
2023-02-12T13:10:34.848Z,66.43
2023-02-12T13:13:20.339Z,65.84
2023-02-12T13:16:16.041Z,65.72
2023-02-12T13:18:47.624Z,65.65
2023-02-12T13:21:19.944Z,66.02
2023-02-12T13:23:57.754Z,65.01
2023-02-12T13:26:42.790Z,65.46
2023-02-12T13:29:19.010Z,65.37
2023-02-12T13:31:51.152Z,65.68
2023-02-12T13:34:19.910Z,65.85
2023-02-12T13:36:48.287Z,66.05
2023-02-12T13:39:18.781Z,65.89
2023-02-12T13:41:58.473Z,66.34
2023-02-12T13:44:36.767Z,65.61
2023-02-12T13:47:13.530Z,65.71
2023-02-12T13:49:55.664Z,65.46
2023-02-12T13:52:27.972Z,65.33
2023-02-12T13:55:19.317Z,65.72
2023-02-12T13:57:45.732Z,65.65
2023-02-12T14:00:50.021Z,65.96
2023-02-12T14:03:16.478Z,66.18
2023-02-12T14:05:43.006Z,65.72
2023-02-12T14:08:35.429Z,65.37
2023-02-12T14:11:12.776Z,65.69
2023-02-12T14:13:58.285Z,66.16
2023-02-12T14:16:32.446Z,66.53
2023-02-12T14:19:37.306Z,66.47
2023-02-12T14:22:26.157Z,66.37
2023-02-12T14:24:54.914Z,66.70
2023-02-12T14:27:36.476Z,66.91
2023-02-12T14:30:31.525Z,66.79
2023-02-12T14:33:10.745Z,66.57
2023-02-12T14:35:42.491Z,66.50
2023-02-12T14:38:12.040Z,66.91
2023-02-12T14:40:44.014Z,67.13
2023-02-12T14:44:01.328Z,67.44
2023-02-12T14:46:27.730Z,67.58
2023-02-12T14:49:06.053Z,66.96
2023-02-12T14:54:45.318Z,67.45
2023-02-12T14:57:22.679Z,67.73
2023-02-12T14:59:52.178Z,67.50
2023-02-12T15:02:30.694Z,67.34
2023-02-12T15:05:09.706Z,67.67
2023-02-12T15:07:44.537Z,67.35
2023-02-12T15:10:24.599Z,67.44
2023-02-12T15:13:07.366Z,67.43
2023-02-12T15:15:39.811Z,67.33
2023-02-12T15:18:30.798Z,67.52
2023-02-12T15:21:14.093Z,67.62
2023-02-12T15:23:43.268Z,67.72
2023-02-12T15:26:18.936Z,68.03
2023-02-12T15:28:54.793Z,68.33
2023-02-12T15:31:29.379Z,68.19
2023-02-12T15:34:01.138Z,68.41
2023-02-12T15:36:31.213Z,68.23
2023-02-12T15:39:06.866Z,68.55
2023-02-12T15:41:33.297Z,68.56
2023-02-12T15:44:24.964Z,68.35
2023-02-12T15:47:14.003Z,68.39
2023-02-12T15:49:43.117Z,68.40
2023-02-12T15:52:18.602Z,68.47
2023-02-12T15:54:46.734Z,68.60
2023-02-12T15:57:20.041Z,68.90
2023-02-12T15:59:54.617Z,68.79
2023-02-12T16:02:37.609Z,68.75
2023-02-12T16:05:05.718Z,68.97
2023-02-12T16:07:36.843Z,68.72
2023-02-12T16:10:08.210Z,68.75
2023-02-12T16:12:37.586Z,68.65
2023-02-12T16:15:04.815Z,68.80
2023-02-12T16:17:34.363Z,68.77
2023-02-12T16:20:15.273Z,68.97
2023-02-12T16:22:44.511Z,68.90
2023-02-12T16:25:19.053Z,68.41
2023-02-12T16:28:17.764Z,68.73
2023-02-12T16:30:45.007Z,68.70
2023-02-12T16:33:53.260Z,68.65
2023-02-12T16:36:19.670Z,68.44
2023-02-12T16:38:52.078Z,68.71
2023-02-12T16:41:18.443Z,68.93
2023-02-12T16:43:46.433Z,68.89
2023-02-12T16:46:14.571Z,69.02
2023-02-12T16:48:49.255Z,68.76
2023-02-12T16:51:33.854Z,68.50
2023-02-12T16:54:02.310Z,68.52
2023-02-12T16:56:31.420Z,68.50
2023-02-12T16:58:59.840Z,68.76
2023-02-12T17:01:33.394Z,68.78
2023-02-12T17:04:01.716Z,68.67
2023-02-12T17:06:31.039Z,68.68
2023-02-12T17:08:58.228Z,68.67
2023-02-12T17:11:26.075Z,68.53
2023-02-12T17:13:54.211Z,68.43
2023-02-12T17:16:30.258Z,68.26
2023-02-12T17:18:57.475Z,68.56
2023-02-12T17:21:27.333Z,68.51
2023-02-12T17:23:56.621Z,68.20
2023-02-12T17:26:24.312Z,68.12
2023-02-12T17:28:50.894Z,68.19
2023-02-12T17:31:17.585Z,68.18
2023-02-12T17:33:44.422Z,68.06
2023-02-12T17:36:11.731Z,68.14
2023-02-12T17:38:38.172Z,68.36
2023-02-12T17:41:09.888Z,68.37
2023-02-12T17:43:36.496Z,68.43
2023-02-12T17:46:09.140Z,68.71
2023-02-12T17:48:35.640Z,68.40
2023-02-12T17:51:02.128Z,68.68
2023-02-12T17:53:28.481Z,68.73
2023-02-12T17:55:54.826Z,68.75
2023-02-12T17:58:21.178Z,68.74
2023-02-12T18:00:47.586Z,69.08
2023-02-12T18:03:14.230Z,69.01
2023-02-12T18:05:43.343Z,69.04
2023-02-12T18:08:12.585Z,68.90
2023-02-12T18:10:43.577Z,69.04
2023-02-12T18:13:14.054Z,68.98
2023-02-12T18:15:41.316Z,69.22
2023-02-12T18:18:08.422Z,69.45
2023-02-12T18:20:42.137Z,69.26
2023-02-12T18:23:09.691Z,69.83
2023-02-12T18:25:43.959Z,69.48
2023-02-12T18:28:34.907Z,69.95
2023-02-12T18:31:05.268Z,69.91
2023-02-12T18:33:34.018Z,70.67
2023-02-12T18:36:18.341Z,70.72
2023-02-12T18:38:46.606Z,70.65
2023-02-12T18:41:18.672Z,70.52
2023-02-12T18:43:45.965Z,70.54
2023-02-12T18:46:15.325Z,70.58
2023-02-12T18:48:45.302Z,70.42
2023-02-12T18:51:17.470Z,70.47
2023-02-12T18:53:44.206Z,70.35
2023-02-12T18:56:12.015Z,70.60
2023-02-12T18:58:39.524Z,70.46
2023-02-12T19:01:19.995Z,70.59
2023-02-12T19:03:56.312Z,70.78
2023-02-12T19:06:23.821Z,70.89
2023-02-12T19:08:54.871Z,70.81
2023-02-12T19:11:21.368Z,70.75
2023-02-12T19:13:51.006Z,71.15
2023-02-12T19:16:19.170Z,71.29
2023-02-12T19:18:50.510Z,71.00
2023-02-12T19:21:17.538Z,71.05
2023-02-12T19:23:48.556Z,71.05
2023-02-12T19:26:18.082Z,71.44
2023-02-12T19:28:44.545Z,71.37
2023-02-12T19:31:18.356Z,71.19
2023-02-12T19:33:46.360Z,70.71
2023-02-12T19:36:15.903Z,70.81
2023-02-12T19:38:48.638Z,70.84
2023-02-12T19:41:21.975Z,71.33
2023-02-12T19:43:51.137Z,71.80
2023-02-12T19:46:19.698Z,71.06
2023-02-12T19:48:49.317Z,71.59
2023-02-12T19:51:20.571Z,71.29
2023-02-12T19:53:50.297Z,71.14
2023-02-12T19:56:17.358Z,71.48
2023-02-12T19:58:48.100Z,71.55
2023-02-12T20:01:19.432Z,71.92
2023-02-12T20:03:50.711Z,71.62
2023-02-12T20:06:24.157Z,71.75
2023-02-12T20:08:56.481Z,71.92
2023-02-12T20:11:32.418Z,71.63
2023-02-12T20:14:04.684Z,71.83
2023-02-12T20:16:55.396Z,71.94
2023-02-12T20:19:25.477Z,72.58
2023-02-12T20:22:01.617Z,72.63
2023-02-12T20:25:18.254Z,73.08
2023-02-12T20:27:25.495Z,73.02
2023-02-12T20:30:24.909Z,73.24
2023-02-12T20:36:46.690Z,72.50
2023-02-12T20:39:30.986Z,73.07
2023-02-12T20:41:57.761Z,73.73
2023-02-12T20:44:24.463Z,73.27
2023-02-12T20:46:56.119Z,73.11
2023-02-12T20:49:23.901Z,73.58
2023-02-12T20:51:50.946Z,73.68
2023-02-12T20:54:26.869Z,73.30
2023-02-12T20:56:53.737Z,73.90
2023-02-12T20:59:22.902Z,73.90
2023-02-12T21:02:15.529Z,74.04
2023-02-12T21:11:31.867Z,73.75
2023-02-12T21:14:36.755Z,73.77
2023-02-12T21:21:26.938Z,74.52
2023-02-12T21:24:03.711Z,74.04
2023-02-12T21:27:06.601Z,74.23
2023-02-12T21:29:43.327Z,74.07
2023-02-12T21:33:26.746Z,73.79
2023-02-12T21:39:17.820Z,74.10
2023-02-12T21:42:50.087Z,74.43
2023-02-12T21:53:06.607Z,74.64
2023-02-12T22:04:11.032Z,74.74
2023-02-12T22:06:43.253Z,75.07
2023-02-12T22:09:12.580Z,75.12
2023-02-12T22:11:43.184Z,75.11
2023-02-12T22:14:14.280Z,75.49
2023-02-12T22:16:42.297Z,75.60
2023-02-12T22:19:09.510Z,75.72
2023-02-12T22:21:39.080Z,75.42
2023-02-12T22:24:07.954Z,75.29
2023-02-12T22:26:35.543Z,75.46
2023-02-12T22:29:09.317Z,75.37
2023-02-12T22:31:38.762Z,75.66
2023-02-12T22:34:10.514Z,75.81
2023-02-12T22:36:40.121Z,75.75
2023-02-12T22:39:07.164Z,75.95
2023-02-12T22:41:34.495Z,76.03
2023-02-12T22:44:05.135Z,76.14
2023-02-12T22:46:33.781Z,76.21
2023-02-12T22:49:03.492Z,76.42
2023-02-12T22:51:37.214Z,76.27
2023-02-12T22:54:07.438Z,76.51
2023-02-12T22:56:37.150Z,76.31
2023-02-12T22:59:14.545Z,76.61
2023-02-12T23:01:42.593Z,76.89
2023-02-12T23:04:19.417Z,76.00
2023-02-12T23:06:48.031Z,76.42
2023-02-12T23:09:18.487Z,76.64
2023-02-12T23:14:27.946Z,76.33
2023-02-12T23:17:07.275Z,76.22
2023-02-12T23:19:38.114Z,75.75
2023-02-12T23:22:09.757Z,75.95
2023-02-12T23:24:41.069Z,76.06
2023-02-12T23:27:08.660Z,76.15
2023-02-12T23:29:36.311Z,76.16
2023-02-12T23:32:03.883Z,75.96
2023-02-12T23:34:34.071Z,76.42
2023-02-12T23:37:04.752Z,75.88
2023-02-12T23:39:32.253Z,76.07
2023-02-12T23:41:59.412Z,76.00
2023-02-12T23:44:26.230Z,76.40
2023-02-12T23:46:54.477Z,76.32
2023-02-12T23:49:21.869Z,75.95
2023-02-12T23:51:49.104Z,76.09
2023-02-12T23:54:18.776Z,76.26
2023-02-12T23:56:45.845Z,76.24
2023-02-12T23:59:12.913Z,76.29
